createdAt,value
2023-12-29T00:02:12.304Z,10.40
2023-12-29T00:04:39.671Z,10.48
2023-12-29T00:07:06.633Z,12.32
2023-12-29T00:09:39.872Z,10.38
2023-12-29T00:12:07.153Z,11.13
2023-12-29T00:14:34.288Z,11.32
2023-12-29T00:17:01.445Z,10.63
2023-12-29T00:19:28.392Z,10.98
2023-12-29T00:21:55.508Z,10.82
2023-12-29T00:24:22.383Z,10.40
2023-12-29T00:26:49.274Z,11.15
2023-12-29T00:29:16.374Z,10.73
2023-12-29T00:31:43.319Z,11.32
2023-12-29T00:34:10.830Z,11.15
2023-12-29T00:36:37.902Z,11.00
2023-12-29T00:39:04.777Z,11.73
2023-12-29T00:41:31.681Z,10.60
2023-12-29T00:43:58.504Z,11.93
2023-12-29T00:46:25.314Z,12.20
2023-12-29T00:48:52.324Z,11.98
2023-12-29T00:51:19.211Z,11.32
2023-12-29T00:53:46.077Z,12.05
2023-12-29T00:56:13.496Z,11.82
2023-12-29T00:58:40.691Z,11.48
2023-12-29T01:01:12.705Z,12.20
2023-12-29T01:03:39.833Z,11.90
2023-12-29T01:06:06.847Z,11.82
2023-12-29T01:08:34.802Z,11.52
2023-12-29T01:11:01.733Z,11.77
2023-12-29T01:13:29.018Z,11.77
2023-12-29T01:15:55.919Z,12.40
2023-12-29T01:18:22.999Z,11.48
2023-12-29T01:20:49.887Z,11.55
2023-12-29T01:23:17.418Z,11.90
2023-12-29T01:25:44.292Z,13.48
2023-12-29T01:28:11.245Z,11.32
2023-12-29T01:30:38.325Z,11.68
2023-12-29T01:33:05.404Z,12.13
2023-12-29T01:35:32.275Z,12.00
2023-12-29T01:37:59.347Z,13.15
2023-12-29T01:40:26.426Z,12.50
2023-12-29T01:42:53.400Z,11.93
2023-12-29T01:45:24.492Z,12.35
2023-12-29T01:47:52.360Z,13.02
2023-12-29T01:50:23.791Z,13.05
2023-12-29T01:52:52.512Z,12.38
2023-12-29T01:55:22.855Z,11.75
2023-12-29T01:57:50.793Z,13.00
2023-12-29T02:00:19.322Z,12.73
2023-12-29T02:02:48.001Z,13.23
2023-12-29T02:05:18.822Z,12.57
2023-12-29T02:07:46.490Z,13.32
2023-12-29T02:10:16.948Z,12.63
2023-12-29T02:12:44.030Z,13.25
2023-12-29T02:15:11.153Z,12.73
2023-12-29T02:17:51.294Z,12.70
2023-12-29T02:20:18.597Z,13.10
2023-12-29T02:22:45.497Z,12.70
2023-12-29T02:25:12.961Z,12.80
2023-12-29T02:27:53.177Z,13.20
2023-12-29T02:30:52.750Z,12.82
2023-12-29T02:33:22.680Z,13.07
2023-12-29T02:35:53.381Z,13.68
2023-12-29T02:38:20.463Z,13.82
2023-12-29T02:40:48.037Z,13.68
2023-12-29T02:43:14.942Z,14.13
2023-12-29T02:45:41.922Z,12.80
2023-12-29T02:48:08.957Z,13.95
2023-12-29T02:50:35.877Z,13.13
2023-12-29T02:53:05.189Z,13.27
2023-12-29T02:55:32.215Z,13.18
2023-12-29T02:57:59.586Z,13.38
2023-12-29T03:00:26.679Z,13.50
2023-12-29T03:02:53.540Z,13.65
2023-12-29T03:05:20.547Z,13.57
2023-12-29T03:07:47.388Z,14.57
2023-12-29T03:10:14.617Z,13.60
2023-12-29T03:12:41.632Z,13.43
2023-12-29T03:15:08.711Z,14.10
2023-12-29T03:17:35.683Z,13.98
2023-12-29T03:20:04.221Z,13.40
2023-12-29T03:22:31.114Z,14.27
2023-12-29T03:24:57.972Z,13.90
2023-12-29T03:27:25.140Z,13.93
2023-12-29T03:29:52.510Z,12.68
2023-12-29T03:32:20.086Z,13.95
2023-12-29T03:34:47.029Z,14.13
2023-12-29T03:37:14.074Z,13.75
2023-12-29T03:39:41.040Z,14.10
2023-12-29T03:42:08.056Z,13.00
2023-12-29T03:44:35.019Z,13.55
2023-12-29T03:47:02.474Z,14.48
2023-12-29T03:49:29.523Z,12.73
2023-12-29T03:51:56.512Z,14.20
2023-12-29T03:54:23.336Z,14.43
2023-12-29T03:56:50.290Z,13.10
2023-12-29T03:59:17.140Z,12.52
2023-12-29T04:01:44.619Z,14.15
2023-12-29T04:04:11.626Z,12.55
2023-12-29T04:06:38.494Z,11.70
2023-12-29T04:09:05.384Z,13.65
2023-12-29T04:11:32.325Z,11.70
2023-12-29T04:13:59.212Z,11.52
2023-12-29T04:16:26.193Z,12.82
2023-12-29T04:18:53.166Z,12.10
2023-12-29T04:21:20.139Z,12.02
2023-12-29T04:23:47.995Z,12.95
2023-12-29T04:26:14.848Z,10.93
2023-12-29T04:28:42.711Z,10.55
2023-12-29T04:31:09.917Z,11.20
2023-12-29T04:33:36.873Z,11.90
2023-12-29T04:36:04.010Z,11.25
2023-12-29T04:38:30.826Z,11.07
2023-12-29T04:40:57.721Z,12.35
2023-12-29T04:43:24.620Z,12.75
2023-12-29T04:45:51.620Z,11.88
2023-12-29T04:48:19.051Z,12.57
2023-12-29T04:50:45.893Z,11.85
2023-12-29T04:53:12.795Z,12.68
2023-12-29T04:55:39.651Z,12.32
2023-12-29T04:58:06.519Z,12.43
2023-12-29T05:00:33.513Z,12.20
2023-12-29T05:03:00.600Z,12.70
2023-12-29T05:05:27.562Z,12.77
2023-12-29T05:07:56.714Z,13.77
2023-12-29T05:10:23.758Z,15.25
2023-12-29T05:12:50.692Z,15.75
2023-12-29T05:15:17.667Z,16.08
2023-12-29T05:17:44.584Z,16.73
2023-12-29T05:20:12.024Z,15.55
2023-12-29T05:22:38.869Z,14.32
2023-12-29T05:25:06.517Z,15.43
2023-12-29T05:27:35.945Z,17.08
2023-12-29T05:30:03.281Z,16.90
2023-12-29T05:32:30.275Z,15.50
2023-12-29T05:34:57.256Z,14.88
2023-12-29T05:37:24.422Z,15.70
2023-12-29T05:39:51.366Z,14.45
2023-12-29T05:42:18.221Z,15.10
2023-12-29T05:44:45.184Z,15.32
2023-12-29T05:47:12.860Z,14.18
2023-12-29T05:49:40.873Z,14.00
2023-12-29T05:52:08.028Z,14.27
2023-12-29T05:54:35.882Z,15.90
2023-12-29T05:57:03.302Z,12.85
2023-12-29T05:59:30.244Z,14.40
2023-12-29T06:01:57.670Z,14.65
2023-12-29T06:04:24.789Z,15.82
2023-12-29T06:06:51.932Z,13.63
2023-12-29T06:09:19.296Z,13.45
2023-12-29T06:11:46.558Z,13.18
2023-12-29T06:14:13.460Z,14.30
2023-12-29T06:16:40.389Z,16.13
2023-12-29T06:19:07.452Z,15.63
2023-12-29T06:21:34.459Z,13.75
2023-12-29T06:24:01.353Z,13.30
2023-12-29T06:26:28.372Z,13.85
2023-12-29T06:28:55.248Z,12.68
2023-12-29T06:31:22.352Z,13.13
2023-12-29T06:33:49.509Z,14.02
2023-12-29T06:36:16.517Z,14.13
2023-12-29T06:38:47.048Z,14.45
2023-12-29T06:41:15.021Z,17.60
2023-12-29T06:43:42.114Z,18.35
2023-12-29T06:46:09.949Z,13.70
2023-12-29T06:48:38.164Z,13.90
2023-12-29T06:51:05.371Z,13.70
2023-12-29T06:53:32.206Z,13.50
2023-12-29T06:55:59.304Z,12.82
2023-12-29T06:58:26.315Z,11.65
2023-12-29T07:00:53.301Z,11.75
2023-12-29T07:03:21.488Z,10.85
2023-12-29T07:05:48.479Z,11.15
2023-12-29T07:08:15.967Z,11.20
2023-12-29T07:10:42.964Z,10.93
2023-12-29T07:13:09.980Z,14.13
2023-12-29T07:15:37.038Z,14.98
2023-12-29T07:18:04.711Z,13.05
2023-12-29T07:20:32.296Z,11.05
2023-12-29T07:22:59.125Z,11.32
2023-12-29T07:25:26.035Z,11.00
2023-12-29T07:27:54.112Z,11.82
2023-12-29T07:30:21.213Z,11.77
2023-12-29T07:32:48.329Z,11.93
2023-12-29T07:35:18.771Z,12.13
2023-12-29T07:37:45.856Z,12.35
2023-12-29T07:40:14.162Z,11.07
2023-12-29T07:42:41.672Z,12.75
2023-12-29T07:45:10.209Z,11.93
2023-12-29T07:47:37.261Z,11.30
2023-12-29T07:50:04.554Z,11.27
2023-12-29T07:52:31.912Z,12.70
2023-12-29T07:54:58.846Z,11.77
2023-12-29T07:57:25.799Z,12.43
2023-12-29T07:59:52.767Z,11.40
2023-12-29T08:02:19.603Z,11.85
2023-12-29T08:04:48.477Z,12.88
2023-12-29T08:07:15.716Z,11.27
2023-12-29T08:09:42.682Z,12.27
2023-12-29T08:12:09.757Z,12.77
2023-12-29T08:14:36.688Z,12.05
2023-12-29T08:17:03.704Z,11.32
2023-12-29T08:19:30.620Z,12.88
2023-12-29T08:21:57.829Z,12.68
2023-12-29T08:24:24.670Z,11.77
2023-12-29T08:26:51.506Z,13.88
2023-12-29T08:29:20.220Z,12.10
2023-12-29T08:31:47.874Z,12.73
2023-12-29T08:34:15.007Z,12.00
2023-12-29T08:36:41.997Z,11.70
2023-12-29T08:39:10.289Z,12.10
2023-12-29T08:41:37.148Z,11.68
2023-12-29T08:44:05.388Z,13.02
2023-12-29T08:46:32.358Z,11.73
2023-12-29T08:48:59.417Z,11.10
2023-12-29T08:51:27.182Z,10.77
2023-12-29T08:53:53.992Z,11.07
2023-12-29T08:56:20.821Z,10.40
2023-12-29T08:58:48.228Z,11.52
2023-12-29T09:01:15.411Z,11.73
2023-12-29T09:03:42.582Z,11.70
2023-12-29T09:06:10.112Z,10.25
2023-12-29T09:08:37.269Z,11.13
2023-12-29T09:11:05.278Z,10.90
2023-12-29T09:13:33.122Z,10.43
2023-12-29T09:16:00.781Z,10.93
2023-12-29T09:18:28.081Z,10.02
2023-12-29T09:20:55.052Z,10.98
2023-12-29T09:23:21.966Z,10.30
2023-12-29T09:25:49.158Z,9.75
2023-12-29T09:28:16.151Z,10.35
2023-12-29T09:30:43.185Z,9.50
2023-12-29T09:33:13.655Z,10.15
2023-12-29T09:35:41.068Z,9.57
2023-12-29T09:38:08.142Z,9.98
2023-12-29T09:40:35.096Z,9.55
2023-12-29T09:43:04.086Z,8.20
2023-12-29T09:45:33.035Z,9.73
2023-12-29T09:48:04.443Z,9.75
2023-12-29T09:50:32.255Z,9.32
2023-12-29T09:53:00.639Z,9.38
2023-12-29T09:55:28.105Z,10.07
2023-12-29T09:57:56.009Z,9.23
2023-12-29T10:00:23.282Z,9.40
2023-12-29T10:02:54.277Z,9.18
2023-12-29T10:05:23.249Z,8.63
2023-12-29T10:07:51.894Z,9.25
2023-12-29T10:10:19.365Z,9.85
2023-12-29T10:12:49.627Z,11.38
2023-12-29T10:15:30.156Z,11.90
2023-12-29T10:18:25.728Z,11.20
2023-12-29T10:21:07.737Z,13.57
2023-12-29T10:23:53.406Z,11.73
2023-12-29T10:26:20.877Z,11.38
2023-12-29T10:28:49.199Z,11.57
2023-12-29T10:31:17.609Z,11.00
2023-12-29T10:33:46.784Z,10.80
2023-12-29T10:36:14.407Z,10.05
2023-12-29T10:38:45.667Z,10.98
2023-12-29T10:41:15.167Z,10.57
2023-12-29T10:43:43.624Z,11.25
2023-12-29T10:46:12.653Z,12.88
2023-12-29T10:48:40.809Z,13.45
2023-12-29T10:51:07.911Z,12.13
2023-12-29T10:53:39.468Z,11.68
2023-12-29T10:56:22.025Z,11.93
2023-12-29T10:58:59.175Z,11.38
2023-12-29T11:01:26.913Z,11.88
2023-12-29T11:04:01.018Z,13.95
2023-12-29T11:06:30.242Z,11.60
2023-12-29T11:08:58.043Z,12.35
2023-12-29T11:11:26.726Z,11.98
2023-12-29T11:13:57.137Z,11.55
2023-12-29T11:16:25.674Z,10.60
2023-12-29T11:18:54.197Z,12.13
2023-12-29T11:21:24.195Z,10.75
2023-12-29T11:23:51.056Z,10.20
2023-12-29T11:26:19.375Z,10.05
2023-12-29T11:28:52.378Z,12.23
2023-12-29T11:31:20.008Z,10.63
2023-12-29T11:33:55.891Z,11.13
2023-12-29T11:39:19.889Z,10.98
2023-12-29T11:42:03.563Z,11.03
2023-12-29T11:44:34.683Z,11.55
2023-12-29T11:47:03.750Z,12.23
2023-12-29T11:50:06.873Z,11.85
2023-12-29T11:52:39.933Z,12.38
2023-12-29T11:55:11.437Z,11.73
2023-12-29T11:57:39.729Z,11.88
2023-12-29T12:00:07.662Z,11.75
2023-12-29T12:02:35.041Z,12.20
2023-12-29T12:05:01.900Z,11.77
2023-12-29T12:07:50.036Z,12.43
2023-12-29T12:10:33.976Z,12.57
2023-12-29T12:13:01.842Z,14.45
2023-12-29T12:15:29.653Z,16.05
2023-12-29T12:18:10.929Z,17.15
2023-12-29T12:20:38.076Z,15.23
2023-12-29T12:23:14.097Z,13.57
2023-12-29T12:25:41.219Z,13.30
2023-12-29T12:28:10.381Z,13.27
2023-12-29T12:30:37.810Z,13.18
2023-12-29T12:33:06.298Z,13.60
2023-12-29T12:35:34.106Z,14.00
2023-12-29T12:38:23.324Z,12.63
2023-12-29T12:40:50.220Z,12.27
2023-12-29T12:43:17.897Z,14.43
2023-12-29T12:45:56.316Z,14.40
2023-12-29T12:48:44.841Z,12.75
2023-12-29T12:51:13.388Z,13.93
2023-12-29T12:53:42.451Z,13.30
2023-12-29T12:56:09.816Z,12.57
2023-12-29T12:58:37.286Z,12.70
2023-12-29T13:01:04.467Z,13.27
2023-12-29T13:03:33.531Z,13.23
2023-12-29T13:06:02.007Z,11.57
2023-12-29T13:08:34.758Z,11.20
2023-12-29T13:11:07.578Z,11.52
2023-12-29T13:13:43.788Z,13.07
2023-12-29T13:16:11.472Z,13.50
2023-12-29T13:18:38.536Z,14.57
2023-12-29T13:21:05.916Z,13.50
2023-12-29T13:23:33.810Z,13.35
2023-12-29T13:26:08.828Z,14.80
2023-12-29T13:28:39.594Z,15.37
2023-12-29T13:31:11.685Z,15.77
2023-12-29T13:33:50.999Z,14.57
2023-12-29T13:36:40.401Z,16.90
2023-12-29T13:39:36.211Z,14.55
2023-12-29T13:42:06.088Z,14.90
2023-12-29T13:44:34.256Z,14.95
2023-12-29T13:47:01.671Z,12.73
2023-12-29T13:49:28.830Z,14.45
2023-12-29T13:51:55.722Z,12.82
2023-12-29T13:54:23.730Z,13.75
2023-12-29T13:56:57.195Z,14.25
2023-12-29T13:59:32.291Z,15.38
2023-12-29T14:02:27.622Z,16.40
2023-12-29T14:05:28.951Z,16.08
2023-12-29T14:08:06.811Z,17.52
2023-12-29T14:10:37.990Z,15.55
2023-12-29T14:13:15.394Z,15.48
2023-12-29T14:15:52.719Z,18.77
2023-12-29T14:18:36.462Z,20.85
2023-12-29T14:21:03.546Z,19.50
2023-12-29T14:23:30.405Z,20.63
2023-12-29T14:26:04.299Z,17.88
2023-12-29T14:28:31.163Z,18.02
2023-12-29T14:31:06.260Z,20.15
2023-12-29T14:33:33.337Z,21.07
2023-12-29T14:36:00.283Z,26.13
2023-12-29T14:38:27.899Z,21.55
2023-12-29T14:40:54.769Z,21.67
2023-12-29T14:43:21.695Z,20.45
2023-12-29T14:45:48.559Z,20.25
2023-12-29T14:48:15.618Z,19.58
2023-12-29T14:50:46.524Z,18.98
2023-12-29T14:53:13.945Z,20.73
2023-12-29T14:55:41.100Z,17.95
2023-12-29T14:58:08.057Z,17.85
2023-12-29T15:00:35.313Z,17.95
2023-12-29T15:03:02.305Z,18.40
2023-12-29T15:05:29.475Z,16.83
2023-12-29T15:07:56.430Z,18.70
2023-12-29T15:10:23.388Z,18.92
2023-12-29T15:12:50.654Z,19.60
2023-12-29T15:15:18.993Z,19.60
2023-12-29T15:17:46.008Z,19.00
2023-12-29T15:20:12.926Z,18.13
2023-12-29T15:22:39.791Z,17.13
2023-12-29T15:25:07.366Z,18.00
2023-12-29T15:27:34.315Z,17.17
2023-12-29T15:30:01.586Z,16.48
2023-12-29T15:32:28.424Z,16.25
2023-12-29T15:35:00.527Z,17.60
2023-12-29T15:37:27.350Z,17.42
2023-12-29T15:39:54.160Z,17.85
2023-12-29T15:42:21.462Z,16.02
2023-12-29T15:44:48.376Z,18.05
2023-12-29T15:47:15.202Z,17.63
2023-12-29T15:49:42.080Z,17.20
2023-12-29T15:52:09.203Z,16.35
2023-12-29T15:54:36.283Z,16.80
2023-12-29T15:57:08.279Z,17.17
2023-12-29T15:59:37.734Z,16.13
2023-12-29T16:02:05.012Z,16.20
2023-12-29T16:04:32.070Z,15.90
2023-12-29T16:06:59.080Z,14.70
2023-12-29T16:09:25.887Z,15.68
2023-12-29T16:11:55.963Z,15.65
2023-12-29T16:14:23.326Z,15.27
2023-12-29T16:16:50.168Z,15.73
2023-12-29T16:19:17.299Z,15.43
2023-12-29T16:21:44.346Z,15.50
2023-12-29T16:24:13.598Z,17.55
2023-12-29T16:26:47.215Z,16.52
2023-12-29T16:29:15.303Z,17.02
2023-12-29T16:31:42.239Z,18.30
2023-12-29T16:34:09.624Z,18.77
2023-12-29T16:36:38.423Z,17.85
2023-12-29T16:39:05.357Z,18.73
2023-12-29T16:41:33.374Z,19.73
2023-12-29T16:44:00.290Z,16.92
2023-12-29T16:46:27.283Z,15.48
2023-12-29T16:48:54.232Z,16.35
2023-12-29T16:51:21.102Z,17.67
2023-12-29T16:53:48.001Z,16.70
2023-12-29T16:56:16.084Z,14.30
2023-12-29T16:58:43.800Z,14.77
2023-12-29T17:01:12.789Z,16.33
2023-12-29T17:03:39.677Z,16.33
2023-12-29T17:06:07.046Z,16.88
2023-12-29T17:08:35.709Z,16.85
2023-12-29T17:11:03.985Z,15.82
2023-12-29T17:13:32.002Z,14.73
2023-12-29T17:15:58.940Z,15.65
2023-12-29T17:18:26.254Z,14.70
2023-12-29T17:20:53.358Z,15.48
2023-12-29T17:23:20.213Z,14.00
2023-12-29T17:25:54.307Z,14.63
2023-12-29T17:28:24.038Z,15.05
2023-12-29T17:30:50.932Z,14.32
2023-12-29T17:33:19.515Z,14.85
2023-12-29T17:35:46.680Z,14.23
2023-12-29T17:38:13.572Z,13.27
2023-12-29T17:40:40.398Z,14.52
2023-12-29T17:43:07.577Z,14.07
2023-12-29T17:45:34.549Z,13.68
2023-12-29T17:48:02.107Z,13.90
2023-12-29T17:50:29.341Z,14.38
2023-12-29T17:52:56.296Z,13.68
2023-12-29T17:55:23.208Z,14.73
2023-12-29T17:57:50.244Z,13.77
2023-12-29T18:00:17.357Z,14.20
2023-12-29T18:02:44.282Z,13.05
2023-12-29T18:05:11.157Z,13.68
2023-12-29T18:07:37.998Z,13.50
2023-12-29T18:10:05.902Z,13.02
2023-12-29T18:12:32.796Z,13.75
2023-12-29T18:15:01.292Z,14.10
2023-12-29T18:17:32.114Z,13.88
2023-12-29T18:19:59.023Z,13.70
2023-12-29T18:22:25.999Z,13.43
2023-12-29T18:24:52.976Z,14.63
2023-12-29T18:27:20.035Z,13.75
2023-12-29T18:29:47.045Z,13.48
2023-12-29T18:32:19.967Z,13.85
2023-12-29T18:34:53.833Z,14.75
2023-12-29T18:37:21.502Z,13.93
2023-12-29T18:39:49.273Z,14.15
2023-12-29T18:42:16.923Z,15.25
2023-12-29T18:44:43.843Z,14.70
2023-12-29T18:47:12.192Z,13.82
2023-12-29T18:49:39.409Z,13.82
2023-12-29T18:52:06.664Z,14.43
2023-12-29T18:54:34.179Z,13.73
2023-12-29T18:57:02.733Z,14.05
2023-12-29T18:59:30.009Z,14.20
2023-12-29T19:01:59.036Z,14.65
2023-12-29T19:04:26.654Z,16.25
2023-12-29T19:06:53.707Z,14.60
2023-12-29T19:09:20.731Z,15.25
2023-12-29T19:11:47.781Z,14.93
2023-12-29T19:14:14.793Z,16.80
2023-12-29T19:16:42.077Z,15.30
2023-12-29T19:19:09.554Z,17.70
2023-12-29T19:21:43.604Z,17.08
2023-12-29T19:24:11.317Z,16.08
2023-12-29T19:26:38.280Z,15.95
2023-12-29T19:29:05.439Z,17.17
2023-12-29T19:31:32.461Z,17.00
2023-12-29T19:33:59.486Z,16.55
2023-12-29T19:36:26.458Z,15.40
2023-12-29T19:38:53.349Z,16.38
2023-12-29T19:41:23.034Z,15.32
2023-12-29T19:43:50.450Z,16.42
2023-12-29T19:46:23.064Z,16.15
2023-12-29T19:48:51.773Z,14.63
2023-12-29T19:51:20.756Z,15.48
2023-12-29T19:53:48.539Z,14.43
2023-12-29T19:56:26.367Z,16.40
2023-12-29T19:58:57.262Z,15.20
2023-12-29T20:01:25.203Z,15.82
2023-12-29T20:03:52.211Z,16.58
2023-12-29T20:06:25.117Z,16.08
2023-12-29T20:08:52.915Z,15.82
2023-12-29T20:11:20.425Z,15.90
2023-12-29T20:13:47.526Z,15.88
2023-12-29T20:16:25.136Z,16.00
2023-12-29T20:18:56.448Z,15.93
2023-12-29T20:21:27.020Z,15.20
2023-12-29T20:23:55.195Z,14.73
2023-12-29T20:26:29.571Z,15.90
2023-12-29T20:28:57.166Z,16.38
2023-12-29T20:31:27.552Z,15.32
2023-12-29T20:33:57.429Z,16.77
2023-12-29T20:36:25.922Z,15.98
2023-12-29T20:38:53.586Z,17.38
2023-12-29T20:41:21.571Z,16.60
2023-12-29T20:43:49.100Z,15.63
2023-12-29T20:46:16.398Z,15.50
2023-12-29T20:48:43.573Z,15.88
2023-12-29T20:51:17.243Z,17.13
2023-12-29T20:53:44.574Z,15.55
2023-12-29T20:56:11.888Z,15.85
2023-12-29T20:58:39.090Z,16.10
2023-12-29T21:01:09.607Z,16.15
2023-12-29T21:03:37.367Z,15.77
2023-12-29T21:06:06.887Z,16.45
2023-12-29T21:08:34.659Z,16.05
2023-12-29T21:11:02.491Z,15.95
2023-12-29T21:13:31.014Z,15.77
2023-12-29T21:15:58.431Z,16.50
2023-12-29T21:18:25.547Z,15.98
2023-12-29T21:20:52.894Z,17.17
2023-12-29T21:23:20.406Z,17.85
2023-12-29T21:25:47.344Z,17.30
2023-12-29T21:28:14.298Z,17.33
2023-12-29T21:30:42.649Z,16.55
2023-12-29T21:33:09.905Z,17.30
2023-12-29T21:35:37.317Z,16.52
2023-12-29T21:38:04.629Z,17.00
2023-12-29T21:40:31.705Z,16.67
2023-12-29T21:43:01.010Z,17.25
2023-12-29T21:45:28.478Z,16.02
2023-12-29T21:47:55.669Z,15.93
2023-12-29T21:50:22.641Z,17.70
2023-12-29T21:52:50.001Z,17.33
2023-12-29T21:55:16.988Z,16.98
2023-12-29T21:57:43.814Z,16.98
2023-12-29T22:00:13.983Z,16.98
2023-12-29T22:02:41.622Z,16.63
2023-12-29T22:05:09.486Z,16.58
2023-12-29T22:07:36.850Z,16.10
2023-12-29T22:10:05.596Z,16.50
2023-12-29T22:12:34.511Z,17.08
2023-12-29T22:15:02.140Z,16.73
2023-12-29T22:17:29.481Z,16.77
2023-12-29T22:19:56.909Z,16.13
2023-12-29T22:22:23.843Z,17.00
2023-12-29T22:24:51.384Z,18.23
2023-12-29T22:27:18.219Z,17.10
2023-12-29T22:29:45.066Z,16.88
2023-12-29T22:32:11.968Z,16.83
2023-12-29T22:34:39.219Z,16.58
2023-12-29T22:37:07.273Z,16.58
2023-12-29T22:39:34.294Z,15.48
2023-12-29T22:42:02.710Z,16.55
2023-12-29T22:44:29.714Z,15.38
2023-12-29T22:46:56.550Z,16.70
2023-12-29T22:49:23.621Z,16.08
2023-12-29T22:51:50.691Z,15.23
2023-12-29T22:54:17.670Z,14.43
2023-12-29T22:56:45.619Z,15.98
2023-12-29T22:59:13.551Z,16.13
2023-12-29T23:01:41.289Z,15.93
2023-12-29T23:04:08.535Z,16.58
2023-12-29T23:06:35.480Z,17.02
2023-12-29T23:09:02.612Z,17.67
2023-12-29T23:11:29.480Z,18.35
2023-12-29T23:13:56.435Z,16.60
2023-12-29T23:16:23.425Z,15.43
2023-12-29T23:18:50.984Z,16.58
2023-12-29T23:21:19.505Z,14.82
2023-12-29T23:23:46.987Z,15.93
2023-12-29T23:26:14.950Z,15.50
2023-12-29T23:28:41.870Z,15.38
2023-12-29T23:31:10.306Z,15.05
2023-12-29T23:33:37.806Z,14.55
2023-12-29T23:36:05.291Z,15.57
2023-12-29T23:38:32.178Z,14.43
2023-12-29T23:41:00.458Z,15.90
2023-12-29T23:43:27.482Z,14.73
2023-12-29T23:45:55.360Z,15.68
2023-12-29T23:48:24.306Z,14.95
2023-12-29T23:50:51.285Z,16.33
2023-12-29T23:53:18.226Z,15.90
2023-12-29T23:55:45.072Z,14.60
2023-12-29T23:58:12.102Z,15.82
